Marion, VA

4:22 PM EDT on April 24, 2017 (GMT -0400)
Mountain Empire

Weather History for KMKJ - January, 2013

Change the Weather History Date:

Sunday, January 20, 2013

  Actual Average (KBLF) Record (KBLF)
Temperature  
Mean Temperature 38 °F -  
Max Temperature 44 °F 36 °F 60 °F (1988)
Min Temperature 32 °F 21 °F -20 °F (1985)
Degree Days  
Heating Degree Days 27    
Moisture  
Dew Point 30 °F    
Average Humidity 72    
Maximum Humidity 88    
Minimum Humidity 61    
Precipitation  
Precipitation 0.16 in - - ()
Sea Level Pressure  
Sea Level Pressure 30.08 in    
Wind  
Wind Speed 15 mph (WSW)    
Max Wind Speed 22 mph    
Max Gust Speed 32 mph    
Visibility 10 miles    
Events      
Averages and records for this station are not official NWS values.
T = Trace of Precipitation, MM = Missing Value Source: NWS Daily Summary

Daily Weather History Graph

Daily Weather History Graph

Search for Another Location

Airport or City:

Trip Planner

Search our weather history database for the weather conditions in past years. The results will help you decide how hot, cold, wet, or windy it might be!

Date:

Astronomy

Jan. 20, 2013 Rise Set
Actual Time 7:35 AM EST 5:38 PM EST
Civil Twilight 7:07 AM EST 6:06 PM EST
Nautical Twilight 6:35 AM EST 6:37 PM EST
Astronomical Twilight 6:04 AM EST 7:08 PM EST
Moon 12:37 PM EST (1/20) 2:07 AM EST (1/20)
Length of Visible Light 10h 58m
Length of Day
10h 02m
Waxing Gibbous, 66% of the Moon is Illuminated
Jan 20
Waxing Gibbous
Jan 26
Full
Feb 3
Last Quarter
Feb 10
New
Feb 17
First Quarter

Hourly Weather History & Observations

Time (EST) Temp. Windchill Dew Point Humidity Pressure Visibility Wind Dir Wind Speed Gust Speed Precip Events Conditions
12:15 AM 32.9 °F 24.7 °F 26.8 °F 78% 30.11 in 10.0 mi WSW 10.4 mph - N/A   Clear
12:35 AM 32.7 °F 24.5 °F 26.8 °F 79% 30.10 in 10.0 mi West 10.4 mph - N/A   Clear
12:55 AM 33.4 °F 23.9 °F 27.3 °F 78% 30.10 in 10.0 mi WSW 13.8 mph - N/A   Clear
1:15 AM 33.8 °F 24.3 °F 27.5 °F 78% 30.09 in 10.0 mi WSW 13.8 mph - N/A   Clear
1:35 AM 33.8 °F 24.3 °F 27.7 °F 78% 30.09 in 10.0 mi WSW 13.8 mph - N/A   Clear
1:55 AM 34.0 °F 24.6 °F 28.0 °F 79% 30.09 in 10.0 mi WSW 13.8 mph 19.6 mph N/A   Clear
2:15 AM 34.7 °F 25.1 °F 28.2 °F 77% 30.09 in 10.0 mi WSW 15.0 mph - N/A   Clear
2:35 AM 34.7 °F 25.5 °F 28.2 °F 77% 30.09 in 10.0 mi WSW 13.8 mph - N/A   Clear
2:55 AM 36.1 °F 26.9 °F 28.4 °F 73% 30.09 in 10.0 mi WSW 15.0 mph - N/A   Clear
3:15 AM 36.3 °F 27.1 °F 28.4 °F 73% 30.09 in 10.0 mi WSW 15.0 mph 21.9 mph N/A   Clear
3:35 AM 36.3 °F 27.1 °F 28.2 °F 72% 30.09 in 10.0 mi West 15.0 mph - N/A   Clear
3:55 AM 35.6 °F 25.9 °F 28.0 °F 74% 30.08 in 10.0 mi West 16.1 mph - N/A   Clear
4:15 AM 36.0 °F 26.0 °F 28.2 °F 73% 30.07 in 10.0 mi West 17.3 mph - N/A   Clear
4:35 AM 36.7 °F 26.6 °F 28.2 °F 71% 30.07 in 10.0 mi West 18.4 mph - N/A   Clear
4:55 AM 37.0 °F 27.0 °F 28.2 °F 70% 30.07 in 10.0 mi West 18.4 mph 28.8 mph N/A   Clear
5:15 AM 36.9 °F 26.5 °F 28.2 °F 71% 30.07 in 10.0 mi WSW 19.6 mph - N/A   Clear
5:35 AM 36.3 °F 26.1 °F 28.0 °F 72% 30.07 in 10.0 mi WSW 18.4 mph 25.3 mph N/A   Clear
5:55 AM 36.1 °F 25.9 °F 28.0 °F 72% 30.07 in 10.0 mi WSW 18.4 mph 24.2 mph N/A   Clear
6:15 AM 36.1 °F 25.5 °F 28.0 °F 72% 30.07 in 10.0 mi WSW 19.6 mph 27.6 mph N/A   Clear
6:35 AM 35.8 °F 25.1 °F 27.9 °F 73% 30.07 in 10.0 mi WSW 19.6 mph 25.3 mph N/A   Clear
6:55 AM 36.0 °F 25.3 °F 28.0 °F 73% 30.07 in 10.0 mi WSW 19.6 mph 25.3 mph N/A   Clear
7:15 AM 35.8 °F 25.4 °F 27.7 °F 72% 30.07 in 10.0 mi WSW 18.4 mph 26.5 mph N/A   Clear
7:35 AM 35.6 °F 24.8 °F 27.9 °F 73% 30.07 in 10.0 mi WSW 19.6 mph 25.3 mph N/A   Clear
7:55 AM 35.6 °F 24.2 °F 28.0 °F 74% 30.08 in 10.0 mi WSW 21.9 mph 27.6 mph N/A   Clear
8:15 AM 35.8 °F 26.1 °F 28.0 °F 73% 30.08 in 10.0 mi WSW 16.1 mph 24.2 mph N/A   Clear
8:35 AM 36.5 °F 26.3 °F 28.2 °F 72% 30.08 in 10.0 mi WSW 18.4 mph 25.3 mph N/A   Clear
8:55 AM 36.9 °F 26.8 °F 28.4 °F 71% 30.09 in 10.0 mi WSW 18.4 mph - N/A   Clear
9:15 AM 37.4 °F 26.6 °F 28.8 °F 71% 30.09 in 10.0 mi WSW 21.9 mph 26.5 mph N/A   Clear
9:35 AM 38.3 °F 28.4 °F 29.1 °F 70% 30.09 in 10.0 mi WSW 19.6 mph 25.3 mph N/A   Clear
9:55 AM 38.7 °F 28.6 °F 29.3 °F 69% 30.10 in 10.0 mi WSW 20.7 mph 27.6 mph N/A   Clear
10:15 AM 39.4 °F 30.1 °F 29.8 °F 69% 30.10 in 10.0 mi WSW 18.4 mph 25.3 mph N/A   Clear
10:35 AM 40.1 °F 31.3 °F 30.2 °F 68% 30.10 in 10.0 mi WSW 17.3 mph 24.2 mph N/A   Clear
10:55 AM 41.0 °F 31.9 °F 30.2 °F 65% 30.11 in 10.0 mi WSW 19.6 mph 24.2 mph 0.01 in   Clear
11:15 AM 41.4 °F 32.7 °F 30.9 °F 66% 30.10 in 10.0 mi WSW 18.4 mph 24.2 mph 0.01 in   Clear
11:35 AM 41.9 °F 33.7 °F 31.1 °F 66% 30.09 in 10.0 mi WSW 17.3 mph 26.5 mph 0.02 in   Clear
11:55 AM 42.4 °F 33.5 °F 31.5 °F 65% 30.08 in 10.0 mi WSW 20.7 mph 25.3 mph 0.05 in   Clear
12:15 PM 42.8 °F 34.5 °F 31.8 °F 65% 30.07 in 10.0 mi WSW 18.4 mph 26.5 mph 0.01 in   Clear
12:35 PM 43.0 °F 34.0 °F 32.0 °F 65% 30.07 in 10.0 mi West 21.9 mph 26.5 mph 0.03 in   Clear
12:55 PM 43.0 °F 34.5 °F 32.0 °F 65% 30.06 in 10.0 mi WSW 19.6 mph 32.2 mph 0.06 in   Clear
1:15 PM 43.5 °F 35.5 °F 32.0 °F 64% 30.05 in 10.0 mi WSW 18.4 mph 26.5 mph 0.02 in   Clear
1:35 PM 43.7 °F 35.7 °F 32.0 °F 63% 30.05 in 10.0 mi West 18.4 mph 28.8 mph 0.04 in   Clear
1:55 PM 43.7 °F 36.0 °F 32.0 °F 63% 30.05 in 10.0 mi West 17.3 mph 26.5 mph 0.04 in   Clear
2:15 PM 44.1 °F 35.9 °F 32.0 °F 63% 30.05 in 10.0 mi WSW 19.6 mph 24.2 mph N/A   Scattered Clouds
2:35 PM 44.2 °F 36.7 °F 32.0 °F 62% 30.05 in 10.0 mi WSW 17.3 mph - N/A   Scattered Clouds
2:55 PM 44.6 °F 36.9 °F 32.0 °F 61% 30.05 in 10.0 mi WSW 18.4 mph 23.0 mph N/A   Scattered Clouds
3:15 PM 44.6 °F 37.8 °F 32.0 °F 61% 30.05 in 10.0 mi WSW 15.0 mph 24.2 mph N/A   Scattered Clouds
3:35 PM 44.6 °F 36.4 °F 31.8 °F 61% 30.05 in 10.0 mi WSW 20.7 mph 25.3 mph N/A   Clear
4:15 PM 44.6 °F 37.8 °F 32.0 °F 61% 30.06 in 10.0 mi WSW 15.0 mph 23.0 mph N/A   Clear
4:35 PM 44.4 °F 37.5 °F 32.0 °F 62% 30.06 in 10.0 mi WSW 15.0 mph - N/A   Clear
4:55 PM 44.2 °F 37.6 °F 32.0 °F 62% 30.06 in 10.0 mi WSW 13.8 mph - N/A   Clear
5:15 PM 43.7 °F 37.7 °F 32.0 °F 63% 30.07 in 10.0 mi WSW 11.5 mph - N/A   Clear
5:35 PM 43.3 °F 36.8 °F 32.0 °F 64% 30.07 in 10.0 mi WSW 12.7 mph - N/A   Clear
5:55 PM 42.1 °F 35.7 °F 32.0 °F 67% 30.08 in 10.0 mi West 11.5 mph - N/A   Clear
6:15 PM 41.9 °F 35.4 °F 32.0 °F 68% 30.09 in 10.0 mi WSW 11.5 mph - N/A   Clear
6:35 PM 41.2 °F 34.5 °F 32.0 °F 70% 30.09 in 10.0 mi West 11.5 mph - N/A   Clear
6:55 PM 41.2 °F 34.5 °F 32.0 °F 70% 30.09 in 10.0 mi WSW 11.5 mph - N/A   Clear
7:15 PM 40.6 °F 35.4 °F 32.0 °F 71% 30.09 in 10.0 mi WSW 8.1 mph - N/A   Clear
7:35 PM 39.6 °F 34.0 °F 32.0 °F 74% 30.09 in 10.0 mi WSW 8.1 mph - N/A   Clear
7:55 PM 39.2 °F 33.0 °F 32.0 °F 75% 30.09 in 10.0 mi West 9.2 mph - N/A   Clear
8:15 PM 38.7 °F 32.4 °F 31.8 °F 76% 30.09 in 10.0 mi WSW 9.2 mph - N/A   Clear
8:35 PM 37.9 °F 31.5 °F 31.8 °F 79% 30.09 in 10.0 mi WSW 9.2 mph - N/A   Clear
8:55 PM 37.4 °F 31.4 °F 31.8 °F 80% 30.09 in 10.0 mi WSW 8.1 mph - N/A   Clear
9:15 PM 36.9 °F 30.1 °F 31.8 °F 82% 30.09 in 10.0 mi WSW 9.2 mph - N/A   Clear
9:35 PM 36.7 °F 29.9 °F 31.6 °F 82% 30.09 in 10.0 mi WSW 9.2 mph - N/A   Clear
9:55 PM 36.1 °F 29.3 °F 31.6 °F 84% 30.09 in 10.0 mi WSW 9.2 mph - N/A   Clear
10:15 PM 36.0 °F 29.0 °F 31.3 °F 83% 30.09 in 10.0 mi WSW 9.2 mph - N/A   Clear
10:35 PM 36.1 °F 29.9 °F 31.5 °F 83% 30.09 in 10.0 mi WSW 8.1 mph - N/A   Clear
10:55 PM 35.1 °F 28.6 °F 31.1 °F 85% 30.09 in 10.0 mi WSW 8.1 mph - N/A   Clear
11:15 PM 35.6 °F 28.6 °F 31.5 °F 85% 30.08 in 10.0 mi WSW 9.2 mph - N/A   Clear
11:35 PM 34.7 °F 28.8 °F 31.1 °F 87% 30.08 in 10.0 mi WSW 6.9 mph - N/A   Clear
11:55 PM 34.3 °F 28.4 °F 31.1 °F 88% 30.07 in 10.0 mi SW 6.9 mph - N/A   Clear